sensor_id;sensor_type;location;lat;lon;timestamp;pressure;altitude;pressure_sealevel;temperature;humidity
61870;BME280;47810;42.264;23.826;2022-11-15T00:02:11;94446.84;;;3.88;79.61
61870;BME280;47810;42.264;23.826;2022-11-15T00:04:36;94445.41;;;3.78;79.96
61870;BME280;47810;42.264;23.826;2022-11-15T00:07:02;94443.97;;;3.68;80.06
61870;BME280;47810;42.264;23.826;2022-11-15T00:09:28;94439.50;;;3.73;79.31
61870;BME280;47810;42.264;23.826;2022-11-15T00:11:53;94436.88;;;3.73;79.25
61870;BME280;47810;42.264;23.826;2022-11-15T00:14:19;94438.06;;;3.63;79.31
61870;BME280;47810;42.264;23.826;2022-11-15T00:16:45;94435.22;;;3.69;79.59
61870;BME280;47810;42.264;23.826;2022-11-15T00:19:10;94441.91;;;3.79;79.19
61870;BME280;47810;42.264;23.826;2022-11-15T00:21:37;94442.44;;;3.61;79.48
61870;BME280;47810;42.264;23.826;2022-11-15T00:24:02;94444.31;;;3.56;79.84
61870;BME280;47810;42.264;23.826;2022-11-15T00:26:28;94445.41;;;3.48;80.43
61870;BME280;47810;42.264;23.826;2022-11-15T00:28:53;94449.63;;;3.53;80.56
61870;BME280;47810;42.264;23.826;2022-11-15T00:31:19;94430.41;;;3.57;79.96
61870;BME280;47810;42.264;23.826;2022-11-15T00:33:44;94437.22;;;3.61;79.06
61870;BME280;47810;42.264;23.826;2022-11-15T00:36:10;94426.97;;;3.55;79.53
61870;BME280;47810;42.264;23.826;2022-11-15T00:38:37;94431.91;;;3.64;79.18
61870;BME280;47810;42.264;23.826;2022-11-15T00:41:05;94433.72;;;3.62;79.61
61870;BME280;47810;42.264;23.826;2022-11-15T00:43:31;94432.91;;;3.60;79.74
61870;BME280;47810;42.264;23.826;2022-11-15T00:45:57;94431.00;;;3.65;79.54
61870;BME280;47810;42.264;23.826;2022-11-15T00:48:23;94426.59;;;3.67;79.33
61870;BME280;47810;42.264;23.826;2022-11-15T00:50:48;94419.94;;;3.57;79.46
61870;BME280;47810;42.264;23.826;2022-11-15T00:53:14;94420.72;;;3.60;78.86
61870;BME280;47810;42.264;23.826;2022-11-15T00:55:40;94423.84;;;3.42;79.62
61870;BME280;47810;42.264;23.826;2022-11-15T00:58:05;94419.31;;;3.48;79.67
61870;BME280;47810;42.264;23.826;2022-11-15T01:00:31;94421.75;;;3.55;79.35
61870;BME280;47810;42.264;23.826;2022-11-15T01:02:56;94410.22;;;3.62;78.72
61870;BME280;47810;42.264;23.826;2022-11-15T01:05:22;94420.91;;;3.53;79.27
61870;BME280;47810;42.264;23.826;2022-11-15T01:07:50;94420.47;;;3.38;80.03
61870;BME280;47810;42.264;23.826;2022-11-15T01:10:16;94415.38;;;3.34;80.09
61870;BME280;47810;42.264;23.826;2022-11-15T01:12:42;94422.34;;;3.33;80.33
61870;BME280;47810;42.264;23.826;2022-11-15T01:15:07;94415.97;;;3.43;79.97
61870;BME280;47810;42.264;23.826;2022-11-15T01:17:33;94418.56;;;3.43;80.26
61870;BME280;47810;42.264;23.826;2022-11-15T01:19:59;94418.31;;;3.53;80.87
61870;BME280;47810;42.264;23.826;2022-11-15T01:22:24;94415.75;;;3.51;80.07
61870;BME280;47810;42.264;23.826;2022-11-15T01:24:50;94416.34;;;3.61;80.84
61870;BME280;47810;42.264;23.826;2022-11-15T01:27:16;94413.00;;;3.56;79.84
61870;BME280;47810;42.264;23.826;2022-11-15T01:29:41;94411.38;;;3.52;79.33
61870;BME280;47810;42.264;23.826;2022-11-15T01:32:07;94413.19;;;3.49;79.16
61870;BME280;47810;42.264;23.826;2022-11-15T01:34:33;94415.88;;;3.46;79.22
61870;BME280;47810;42.264;23.826;2022-11-15T01:36:58;94417.47;;;3.52;79.35
61870;BME280;47810;42.264;23.826;2022-11-15T01:39:24;94412.13;;;3.57;77.96
61870;BME280;47810;42.264;23.826;2022-11-15T01:41:49;94414.66;;;3.60;77.48
61870;BME280;47810;42.264;23.826;2022-11-15T01:46:59;94420.81;;;3.26;79.29
61870;BME280;47810;42.264;23.826;2022-11-15T01:49:26;94421.16;;;3.14;80.15
61870;BME280;47810;42.264;23.826;2022-11-15T01:51:53;94412.63;;;3.09;79.84
61870;BME280;47810;42.264;23.826;2022-11-15T01:54:19;94413.03;;;2.93;79.95
61870;BME280;47810;42.264;23.826;2022-11-15T01:56:48;94413.88;;;2.94;80.08
61870;BME280;47810;42.264;23.826;2022-11-15T01:59:16;94413.59;;;3.04;80.05
61870;BME280;47810;42.264;23.826;2022-11-15T02:01:42;94408.44;;;3.01;80.00
61870;BME280;47810;42.264;23.826;2022-11-15T02:04:24;94410.25;;;2.99;79.85
61870;BME280;47810;42.264;23.826;2022-11-15T02:06:50;94406.69;;;2.71;81.21
61870;BME280;47810;42.264;23.826;2022-11-15T02:09:16;94405.53;;;2.48;82.26
61870;BME280;47810;42.264;23.826;2022-11-15T02:11:41;94403.47;;;2.60;82.55
61870;BME280;47810;42.264;23.826;2022-11-15T02:14:08;94401.91;;;2.87;81.29
61870;BME280;47810;42.264;23.826;2022-11-15T02:19:36;94406.19;;;2.89;80.93
61870;BME280;47810;42.264;23.826;2022-11-15T02:22:29;94402.44;;;2.99;80.54
61870;BME280;47810;42.264;23.826;2022-11-15T02:25:01;94395.69;;;2.92;80.89
61870;BME280;47810;42.264;23.826;2022-11-15T02:34:57;94394.63;;;2.67;83.19
61870;BME280;47810;42.264;23.826;2022-11-15T02:37:42;94395.69;;;2.92;82.40
61870;BME280;47810;42.264;23.826;2022-11-15T02:42:53;94386.94;;;2.93;82.57
61870;BME280;47810;42.264;23.826;2022-11-15T02:45:45;94387.66;;;2.98;82.98
61870;BME280;47810;42.264;23.826;2022-11-15T02:48:13;94387.19;;;2.84;83.75
61870;BME280;47810;42.264;23.826;2022-11-15T02:50:40;94390.72;;;2.83;84.13
61870;BME280;47810;42.264;23.826;2022-11-15T02:53:06;94387.78;;;2.95;83.99
61870;BME280;47810;42.264;23.826;2022-11-15T03:00:45;94397.88;;;2.75;86.12
61870;BME280;47810;42.264;23.826;2022-11-15T03:08:29;94389.56;;;2.61;85.52
61870;BME280;47810;42.264;23.826;2022-11-15T03:11:03;94390.59;;;2.53;86.25
61870;BME280;47810;42.264;23.826;2022-11-15T03:16:02;94388.38;;;2.72;85.87
61870;BME280;47810;42.264;23.826;2022-11-15T03:18:32;94388.91;;;2.85;85.69
61870;BME280;47810;42.264;23.826;2022-11-15T03:20:59;94386.94;;;2.93;85.34
61870;BME280;47810;42.264;23.826;2022-11-15T03:23:26;94378.66;;;3.10;85.21
61870;BME280;47810;42.264;23.826;2022-11-15T03:25:53;94382.84;;;3.16;84.89
61870;BME280;47810;42.264;23.826;2022-11-15T03:28:22;94375.13;;;3.42;83.81
61870;BME280;47810;42.264;23.826;2022-11-15T03:30:49;94389.56;;;3.24;84.73
61870;BME280;47810;42.264;23.826;2022-11-15T03:33:17;94384.28;;;3.26;85.07
61870;BME280;47810;42.264;23.826;2022-11-15T03:35:44;94382.44;;;3.30;85.53
61870;BME280;47810;42.264;23.826;2022-11-15T03:38:17;94373.59;;;3.35;86.40
61870;BME280;47810;42.264;23.826;2022-11-15T03:41:04;94382.75;;;3.48;86.72
61870;BME280;47810;42.264;23.826;2022-11-15T03:43:45;94374.56;;;3.61;86.33
61870;BME280;47810;42.264;23.826;2022-11-15T03:46:55;94373.63;;;3.63;86.48
61870;BME280;47810;42.264;23.826;2022-11-15T03:49:12;94366.59;;;3.93;85.64
61870;BME280;47810;42.264;23.826;2022-11-15T03:51:39;94365.47;;;3.74;86.48
61870;BME280;47810;42.264;23.826;2022-11-15T03:54:05;94368.00;;;3.76;86.39
61870;BME280;47810;42.264;23.826;2022-11-15T03:56:34;94365.63;;;3.68;86.93
61870;BME280;47810;42.264;23.826;2022-11-15T03:58:59;94358.63;;;3.70;86.96
61870;BME280;47810;42.264;23.826;2022-11-15T04:01:25;94354.19;;;3.72;86.81
61870;BME280;47810;42.264;23.826;2022-11-15T04:03:50;94357.34;;;3.83;86.83
61870;BME280;47810;42.264;23.826;2022-11-15T04:06:16;94348.19;;;3.70;87.25
61870;BME280;47810;42.264;23.826;2022-11-15T04:08:41;94344.56;;;3.74;87.71
61870;BME280;47810;42.264;23.826;2022-11-15T04:11:07;94345.97;;;3.84;87.33
61870;BME280;47810;42.264;23.826;2022-11-15T04:13:32;94347.81;;;3.82;87.33
61870;BME280;47810;42.264;23.826;2022-11-15T04:15:58;94345.66;;;3.67;87.89
61870;BME280;47810;42.264;23.826;2022-11-15T04:18:24;94341.84;;;3.77;87.68
61870;BME280;47810;42.264;23.826;2022-11-15T04:20:49;94338.44;;;3.75;87.69
61870;BME280;47810;42.264;23.826;2022-11-15T04:23:33;94342.41;;;3.87;87.25
61870;BME280;47810;42.264;23.826;2022-11-15T04:26:18;94337.44;;;3.79;87.33
61870;BME280;47810;42.264;23.826;2022-11-15T04:28:45;94340.84;;;3.81;87.13
61870;BME280;47810;42.264;23.826;2022-11-15T04:31:30;94344.19;;;3.86;86.65
61870;BME280;47810;42.264;23.826;2022-11-15T04:33:56;94339.63;;;3.93;86.42
61870;BME280;47810;42.264;23.826;2022-11-15T04:36:40;94335.25;;;3.93;86.34
61870;BME280;47810;42.264;23.826;2022-11-15T04:39:24;94335.91;;;4.00;86.25
61870;BME280;47810;42.264;23.826;2022-11-15T04:41:49;94332.72;;;3.90;86.41
61870;BME280;47810;42.264;23.826;2022-11-15T04:44:16;94330.38;;;4.09;86.19
61870;BME280;47810;42.264;23.826;2022-11-15T04:46:42;94331.84;;;4.18;85.88
61870;BME280;47810;42.264;23.826;2022-11-15T04:49:07;94333.25;;;4.28;85.21
61870;BME280;47810;42.264;23.826;2022-11-15T04:51:33;94329.03;;;4.24;84.60
61870;BME280;47810;42.264;23.826;2022-11-15T04:53:58;94322.50;;;4.36;83.99
61870;BME280;47810;42.264;23.826;2022-11-15T04:56:24;94320.72;;;4.38;84.11
61870;BME280;47810;42.264;23.826;2022-11-15T04:58:50;94316.75;;;4.26;83.69
61870;BME280;47810;42.264;23.826;2022-11-15T05:01:15;94320.56;;;4.16;84.39
61870;BME280;47810;42.264;23.826;2022-11-15T05:03:42;94318.56;;;4.24;84.35
61870;BME280;47810;42.264;23.826;2022-11-15T05:06:26;94315.44;;;4.13;84.79
61870;BME280;47810;42.264;23.826;2022-11-15T05:08:51;94317.78;;;3.95;85.71
61870;BME280;47810;42.264;23.826;2022-11-15T05:11:17;94315.94;;;3.97;86.12
61870;BME280;47810;42.264;23.826;2022-11-15T05:13:42;94309.03;;;3.96;85.77
61870;BME280;47810;42.264;23.826;2022-11-15T05:16:08;94312.94;;;3.83;86.21
61870;BME280;47810;42.264;23.826;2022-11-15T05:18:34;94311.81;;;3.90;85.67
61870;BME280;47810;42.264;23.826;2022-11-15T05:21:03;94309.97;;;3.94;85.55
61870;BME280;47810;42.264;23.826;2022-11-15T05:23:28;94318.06;;;4.13;85.05
61870;BME280;47810;42.264;23.826;2022-11-15T05:25:58;94315.44;;;4.13;84.68
61870;BME280;47810;42.264;23.826;2022-11-15T05:28:23;94320.56;;;4.16;84.47
61870;BME280;47810;42.264;23.826;2022-11-15T05:30:49;94327.50;;;4.17;84.34
61870;BME280;47810;42.264;23.826;2022-11-15T05:33:14;94316.84;;;4.23;84.35
61870;BME280;47810;42.264;23.826;2022-11-15T05:35:41;94320.16;;;4.28;83.79
61870;BME280;47810;42.264;23.826;2022-11-15T05:38:07;94319.66;;;4.43;83.75
61870;BME280;47810;42.264;23.826;2022-11-15T05:40:33;94323.97;;;4.44;83.31
61870;BME280;47810;42.264;23.826;2022-11-15T05:42:59;94329.59;;;4.32;83.36
61870;BME280;47810;42.264;23.826;2022-11-15T05:45:27;94325.69;;;4.19;82.91
61870;BME280;47810;42.264;23.826;2022-11-15T05:47:53;94329.13;;;4.21;83.21
61870;BME280;47810;42.264;23.826;2022-11-15T05:50:20;94330.88;;;3.94;83.76
61870;BME280;47810;42.264;23.826;2022-11-15T05:52:46;94327.03;;;4.04;83.68
61870;BME280;47810;42.264;23.826;2022-11-15T05:55:12;94329.03;;;4.24;83.19
61870;BME280;47810;42.264;23.826;2022-11-15T05:57:41;94326.44;;;4.23;83.23
61870;BME280;47810;42.264;23.826;2022-11-15T06:00:07;94324.09;;;4.15;83.75
61870;BME280;47810;42.264;23.826;2022-11-15T06:02:34;94329.19;;;4.44;83.22
61870;BME280;47810;42.264;23.826;2022-11-15T06:05:00;94331.59;;;4.51;82.86
61870;BME280;47810;42.264;23.826;2022-11-15T06:07:25;94331.75;;;4.46;82.91
61870;BME280;47810;42.264;23.826;2022-11-15T06:09:51;94336.69;;;4.29;83.10
61870;BME280;47810;42.264;23.826;2022-11-15T06:12:16;94336.75;;;4.27;83.71
61870;BME280;47810;42.264;23.826;2022-11-15T06:14:42;94337.13;;;4.41;83.51
61870;BME280;47810;42.264;23.826;2022-11-15T06:17:07;94347.59;;;4.41;83.42
61870;BME280;47810;42.264;23.826;2022-11-15T06:19:33;94341.63;;;4.38;83.61
61870;BME280;47810;42.264;23.826;2022-11-15T06:22:00;94344.06;;;4.17;84.03
61870;BME280;47810;42.264;23.826;2022-11-15T06:24:26;94342.00;;;4.27;83.77
61870;BME280;47810;42.264;23.826;2022-11-15T06:26:51;94348.59;;;4.11;84.55
61870;BME280;47810;42.264;23.826;2022-11-15T06:29:17;94340.88;;;4.34;84.31
61870;BME280;47810;42.264;23.826;2022-11-15T06:31:42;94344.38;;;4.33;84.10
61870;BME280;47810;42.264;23.826;2022-11-15T06:34:08;94339.16;;;4.33;83.82
61870;BME280;47810;42.264;23.826;2022-11-15T06:36:35;94350.19;;;4.43;83.80
61870;BME280;47810;42.264;23.826;2022-11-15T06:39:01;94340.78;;;4.37;83.92
61870;BME280;47810;42.264;23.826;2022-11-15T06:41:27;94344.81;;;4.21;85.00
61870;BME280;47810;42.264;23.826;2022-11-15T06:43:52;94344.69;;;4.51;84.05
61870;BME280;47810;42.264;23.826;2022-11-15T06:46:18;94343.56;;;4.58;83.82
61870;BME280;47810;42.264;23.826;2022-11-15T06:48:43;94340.47;;;4.47;84.53
61870;BME280;47810;42.264;23.826;2022-11-15T06:51:09;94337.69;;;4.51;84.53
61870;BME280;47810;42.264;23.826;2022-11-15T06:53:34;94333.41;;;4.49;85.24
61870;BME280;47810;42.264;23.826;2022-11-15T06:56:04;94336.88;;;4.24;85.75
61870;BME280;47810;42.264;23.826;2022-11-15T06:58:30;94333.41;;;4.49;85.79
61870;BME280;47810;42.264;23.826;2022-11-15T07:01:00;94339.16;;;4.83;84.76
61870;BME280;47810;42.264;23.826;2022-11-15T07:03:25;94328.41;;;4.67;84.39
61870;BME280;47810;42.264;23.826;2022-11-15T07:05:55;94329.97;;;4.72;85.10
61870;BME280;47810;42.264;23.826;2022-11-15T07:08:21;94321.56;;;4.88;84.63
61870;BME280;47810;42.264;23.826;2022-11-15T07:10:48;94323.13;;;5.18;83.09
61870;BME280;47810;42.264;23.826;2022-11-15T07:13:14;94320.66;;;5.13;83.08
61870;BME280;47810;42.264;23.826;2022-11-15T07:15:39;94327.63;;;5.14;83.43
61870;BME280;47810;42.264;23.826;2022-11-15T07:18:05;94318.16;;;5.10;83.67
61870;BME280;47810;42.264;23.826;2022-11-15T07:20:30;94322.13;;;4.97;83.60
61870;BME280;47810;42.264;23.826;2022-11-15T07:23:00;94310.88;;;4.95;84.44
61870;BME280;47810;42.264;23.826;2022-11-15T07:25:26;94311.03;;;4.90;84.38
61870;BME280;47810;42.264;23.826;2022-11-15T07:27:55;94314.59;;;4.87;84.14
61870;BME280;47810;42.264;23.826;2022-11-15T07:30:21;94328.50;;;4.89;84.76
61870;BME280;47810;42.264;23.826;2022-11-15T07:32:47;94316.88;;;4.97;84.24
61870;BME280;47810;42.264;23.826;2022-11-15T07:35:12;94310.50;;;5.04;84.04
61870;BME280;47810;42.264;23.826;2022-11-15T07:37:38;94314.06;;;5.03;83.67
61870;BME280;47810;42.264;23.826;2022-11-15T07:40:04;94317.38;;;5.08;83.86
61870;BME280;47810;42.264;23.826;2022-11-15T07:42:32;94311.06;;;5.35;83.19
61870;BME280;47810;42.264;23.826;2022-11-15T07:45:16;94316.53;;;5.29;83.18
61870;BME280;47810;42.264;23.826;2022-11-15T07:47:46;94318.72;;;5.18;83.49
61870;BME280;47810;42.264;23.826;2022-11-15T07:50:12;94309.53;;;5.53;83.19
61870;BME280;47810;42.264;23.826;2022-11-15T07:52:37;94317.41;;;5.53;82.83
61870;BME280;47810;42.264;23.826;2022-11-15T07:55:03;94317.31;;;5.55;82.25
61870;BME280;47810;42.264;23.826;2022-11-15T07:57:29;94315.97;;;5.45;82.40
61870;BME280;47810;42.264;23.826;2022-11-15T07:59:55;94324.41;;;5.53;82.36
61870;BME280;47810;42.264;23.826;2022-11-15T08:02:21;94319.50;;;5.44;83.15
61870;BME280;47810;42.264;23.826;2022-11-15T08:04:46;94325.66;;;5.43;82.82
61870;BME280;47810;42.264;23.826;2022-11-15T08:07:12;94322.94;;;5.46;82.25
61870;BME280;47810;42.264;23.826;2022-11-15T08:09:38;94324.13;;;5.37;82.25
61870;BME280;47810;42.264;23.826;2022-11-15T08:12:04;94326.22;;;5.51;81.71
61870;BME280;47810;42.264;23.826;2022-11-15T08:14:29;94320.97;;;5.51;81.61
61870;BME280;47810;42.264;23.826;2022-11-15T08:16:55;94322.41;;;5.81;81.23
61870;BME280;47810;42.264;23.826;2022-11-15T08:19:20;94314.66;;;5.56;81.64
61870;BME280;47810;42.264;23.826;2022-11-15T08:21:46;94318.34;;;5.51;81.82
61870;BME280;47810;42.264;23.826;2022-11-15T08:24:12;94318.94;;;5.59;81.52
61870;BME280;47810;42.264;23.826;2022-11-15T08:26:37;94316.97;;;5.64;81.46
61870;BME280;47810;42.264;23.826;2022-11-15T08:29:03;94319.22;;;5.73;80.91
61870;BME280;47810;42.264;23.826;2022-11-15T08:31:28;94316.06;;;5.87;80.87
61870;BME280;47810;42.264;23.826;2022-11-15T08:33:54;94311.56;;;5.91;80.65
61870;BME280;47810;42.264;23.826;2022-11-15T08:36:19;94307.09;;;5.71;81.79
61870;BME280;47810;42.264;23.826;2022-11-15T08:38:45;94304.19;;;5.78;82.04
61870;BME280;47810;42.264;23.826;2022-11-15T08:41:15;94301.34;;;5.84;81.42
61870;BME280;47810;42.264;23.826;2022-11-15T08:43:42;94301.78;;;5.96;80.94
61870;BME280;47810;42.264;23.826;2022-11-15T08:46:12;94306.16;;;6.17;81.10
61870;BME280;47810;42.264;23.826;2022-11-15T08:48:38;94305.25;;;6.39;80.25
61870;BME280;47810;42.264;23.826;2022-11-15T08:51:03;94291.88;;;6.24;80.86
61870;BME280;47810;42.264;23.826;2022-11-15T08:53:29;94294.41;;;6.26;80.51
61870;BME280;47810;42.264;23.826;2022-11-15T08:55:54;94298.94;;;6.22;79.78
61870;BME280;47810;42.264;23.826;2022-11-15T08:58:20;94296.41;;;5.99;81.75
61870;BME280;47810;42.264;23.826;2022-11-15T09:00:45;94292.88;;;6.00;81.74
61870;BME280;47810;42.264;23.826;2022-11-15T09:03:11;94296.41;;;5.99;81.31
61870;BME280;47810;42.264;23.826;2022-11-15T09:05:37;94285.72;;;6.03;81.46
61870;BME280;47810;42.264;23.826;2022-11-15T09:08:03;94292.38;;;6.12;81.57
61870;BME280;47810;42.264;23.826;2022-11-15T09:10:29;94285.56;;;6.08;81.27
61870;BME280;47810;42.264;23.826;2022-11-15T09:12:56;94287.41;;;6.26;81.39
61870;BME280;47810;42.264;23.826;2022-11-15T09:15:22;94274.31;;;6.26;81.10
61870;BME280;47810;42.264;23.826;2022-11-15T09:17:47;94274.69;;;6.17;80.87
61870;BME280;47810;42.264;23.826;2022-11-15T09:20:13;94267.09;;;6.32;80.38
61870;BME280;47810;42.264;23.826;2022-11-15T09:22:38;94269.56;;;6.35;79.99
61870;BME280;47810;42.264;23.826;2022-11-15T09:25:04;94266.69;;;6.41;79.46
61870;BME280;47810;42.264;23.826;2022-11-15T09:27:30;94266.94;;;6.14;81.08
61870;BME280;47810;42.264;23.826;2022-11-15T09:29:55;94263.56;;;5.68;82.44
61870;BME280;47810;42.264;23.826;2022-11-15T09:32:21;94255.34;;;5.55;83.93
61870;BME280;47810;42.264;23.826;2022-11-15T09:34:48;94250.94;;;6.00;83.09
61870;BME280;47810;42.264;23.826;2022-11-15T09:37:14;94243.69;;;6.27;81.93
61870;BME280;47810;42.264;23.826;2022-11-15T09:39:40;94241.28;;;6.43;82.07
61870;BME280;47810;42.264;23.826;2022-11-15T09:50:09;94238.25;;;6.11;81.90
61870;BME280;47810;42.264;23.826;2022-11-15T09:52:36;94237.88;;;6.20;81.45
61870;BME280;47810;42.264;23.826;2022-11-15T09:55:03;94239.56;;;6.21;82.70
61870;BME280;47810;42.264;23.826;2022-11-15T09:57:31;94233.00;;;6.11;82.35
61870;BME280;47810;42.264;23.826;2022-11-15T10:02:55;94223.94;;;6.18;83.44
61870;BME280;47810;42.264;23.826;2022-11-15T10:05:23;94212.41;;;6.43;83.03
61870;BME280;47810;42.264;23.826;2022-11-15T10:08:03;94202.84;;;6.81;82.64
61870;BME280;47810;42.264;23.826;2022-11-15T10:13:00;94204.13;;;7.10;80.60
61870;BME280;47810;42.264;23.826;2022-11-15T10:15:25;94197.91;;;6.94;81.11
61870;BME280;47810;42.264;23.826;2022-11-15T10:17:57;94185.75;;;7.65;80.19
61870;BME280;47810;42.264;23.826;2022-11-15T10:20:28;94192.41;;;8.25;77.96
61870;BME280;47810;42.264;23.826;2022-11-15T10:22:56;94183.25;;;8.51;77.01
61870;BME280;47810;42.264;23.826;2022-11-15T10:27:55;94171.41;;;8.42;75.39
61870;BME280;47810;42.264;23.826;2022-11-15T10:30:21;94162.63;;;8.24;74.80
61870;BME280;47810;42.264;23.826;2022-11-15T10:32:47;94168.16;;;8.20;74.86
61870;BME280;47810;42.264;23.826;2022-11-15T10:35:27;94166.41;;;8.53;76.71
61870;BME280;47810;42.264;23.826;2022-11-15T10:38:04;94159.66;;;9.30;72.87
61870;BME280;47810;42.264;23.826;2022-11-15T10:40:29;94153.41;;;9.63;72.25
61870;BME280;47810;42.264;23.826;2022-11-15T10:45:31;94139.53;;;10.35;71.91
61870;BME280;47810;42.264;23.826;2022-11-15T10:50:38;94128.59;;;11.27;64.09
61870;BME280;47810;42.264;23.826;2022-11-15T10:53:28;94123.53;;;10.38;68.08
61870;BME280;47810;42.264;23.826;2022-11-15T10:55:52;94121.16;;;10.62;67.63
61870;BME280;47810;42.264;23.826;2022-11-15T11:00:57;94115.81;;;11.61;66.30
61870;BME280;47810;42.264;23.826;2022-11-15T11:03:34;94114.03;;;11.88;65.23
61870;BME280;47810;42.264;23.826;2022-11-15T11:06:14;94108.22;;;12.36;64.37
61870;BME280;47810;42.264;23.826;2022-11-15T11:08:41;94105.03;;;12.44;62.62
61870;BME280;47810;42.264;23.826;2022-11-15T11:11:18;94105.13;;;12.55;63.93
61870;BME280;47810;42.264;23.826;2022-11-15T11:13:43;94096.22;;;12.81;61.51
61870;BME280;47810;42.264;23.826;2022-11-15T11:21:22;94089.84;;;11.95;63.19
61870;BME280;47810;42.264;23.826;2022-11-15T11:32:14;94052.75;;;13.34;60.29
61870;BME280;47810;42.264;23.826;2022-11-15T11:38:15;94033.97;;;13.96;58.79
61870;BME280;47810;42.264;23.826;2022-11-15T11:40:27;94039.50;;;13.93;59.41
61870;BME280;47810;42.264;23.826;2022-11-15T11:45:29;94033.47;;;14.49;54.35
61870;BME280;47810;42.264;23.826;2022-11-15T11:50:36;94025.66;;;14.58;55.75
61870;BME280;47810;42.264;23.826;2022-11-15T11:55:39;94014.72;;;15.29;54.78
61870;BME280;47810;42.264;23.826;2022-11-15T12:00:52;94011.03;;;15.52;52.32
61870;BME280;47810;42.264;23.826;2022-11-15T12:03:31;94001.75;;;15.79;50.88
61870;BME280;47810;42.264;23.826;2022-11-15T12:06:01;94004.03;;;15.40;52.13
61870;BME280;47810;42.264;23.826;2022-11-15T12:10:59;93991.47;;;15.31;52.44
61870;BME280;47810;42.264;23.826;2022-11-15T12:13:26;93991.22;;;15.34;52.84
61870;BME280;47810;42.264;23.826;2022-11-15T12:16:06;93997.28;;;15.36;53.08
61870;BME280;47810;42.264;23.826;2022-11-15T12:18:34;93988.00;;;15.74;53.29
61870;BME280;47810;42.264;23.826;2022-11-15T12:21:07;93984.50;;;15.94;52.73
61870;BME280;47810;42.264;23.826;2022-11-15T12:23:41;93973.59;;;15.65;51.44
61870;BME280;47810;42.264;23.826;2022-11-15T12:26:10;93977.81;;;15.35;53.04
61870;BME280;47810;42.264;23.826;2022-11-15T12:31:10;93970.25;;;16.05;50.93
61870;BME280;47810;42.264;23.826;2022-11-15T12:33:38;93966.13;;;16.12;49.61
61870;BME280;47810;42.264;23.826;2022-11-15T12:41:29;93962.16;;;16.06;50.71
61870;BME280;47810;42.264;23.826;2022-11-15T12:43:55;93954.63;;;16.12;52.01
61870;BME280;47810;42.264;23.826;2022-11-15T12:48:54;93954.47;;;16.34;50.83
61870;BME280;47810;42.264;23.826;2022-11-15T12:51:20;93942.47;;;16.80;50.32
61870;BME280;47810;42.264;23.826;2022-11-15T12:53:49;93939.84;;;16.99;49.58
61870;BME280;47810;42.264;23.826;2022-11-15T12:58:48;93941.31;;;16.42;49.81
61870;BME280;47810;42.264;23.826;2022-11-15T13:04:08;93937.72;;;16.01;49.21
61870;BME280;47810;42.264;23.826;2022-11-15T13:06:39;93935.06;;;15.80;49.05
61870;BME280;47810;42.264;23.826;2022-11-15T13:09:49;93935.75;;;14.97;51.97
61870;BME280;47810;42.264;23.826;2022-11-15T13:11:50;93934.75;;;15.09;51.94
61870;BME280;47810;42.264;23.826;2022-11-15T13:17:00;93926.34;;;15.57;49.94
61870;BME280;47810;42.264;23.826;2022-11-15T13:19:26;93925.06;;;15.41;50.25
61870;BME280;47810;42.264;23.826;2022-11-15T13:21:52;93924.94;;;15.42;50.17
61870;BME280;47810;42.264;23.826;2022-11-15T13:24:37;93923.44;;;15.28;50.21
61870;BME280;47810;42.264;23.826;2022-11-15T13:27:10;93933.28;;;15.05;52.29
61870;BME280;47810;42.264;23.826;2022-11-15T13:29:42;93927.13;;;15.05;50.82
61870;BME280;47810;42.264;23.826;2022-11-15T13:32:11;93924.16;;;14.76;51.83
61870;BME280;47810;42.264;23.826;2022-11-15T13:34:38;93935.28;;;14.70;51.31
61870;BME280;47810;42.264;23.826;2022-11-15T13:37:09;93924.44;;;14.39;52.81
61870;BME280;47810;42.264;23.826;2022-11-15T13:39:37;93918.88;;;14.42;51.98
61870;BME280;47810;42.264;23.826;2022-11-15T13:42:03;93916.22;;;13.97;54.35
61870;BME280;47810;42.264;23.826;2022-11-15T13:44:31;93916.47;;;14.16;53.02
61870;BME280;47810;42.264;23.826;2022-11-15T13:47:02;93922.47;;;13.85;54.42
61870;BME280;47810;42.264;23.826;2022-11-15T13:49:29;93916.56;;;13.81;53.97
61870;BME280;47810;42.264;23.826;2022-11-15T13:51:55;93922.91;;;13.08;56.70
61870;BME280;47810;42.264;23.826;2022-11-15T13:59:21;93924.31;;;12.53;58.72
61870;BME280;47810;42.264;23.826;2022-11-15T14:01:49;93917.19;;;11.78;61.30
61870;BME280;47810;42.264;23.826;2022-11-15T14:04:17;93916.53;;;11.75;62.13
61870;BME280;47810;42.264;23.826;2022-11-15T14:06:44;93921.50;;;11.54;62.21
61870;BME280;47810;42.264;23.826;2022-11-15T14:11:37;93909.91;;;11.16;63.23
61870;BME280;47810;42.264;23.826;2022-11-15T14:16:38;93904.47;;;10.65;64.62
61870;BME280;47810;42.264;23.826;2022-11-15T14:19:04;93906.16;;;10.25;65.88
61870;BME280;47810;42.264;23.826;2022-11-15T14:21:30;93905.25;;;9.97;66.75
61870;BME280;47810;42.264;23.826;2022-11-15T14:24:15;93900.34;;;10.06;66.98
61870;BME280;47810;42.264;23.826;2022-11-15T14:26:41;93906.75;;;9.87;67.45
61870;BME280;47810;42.264;23.826;2022-11-15T14:29:26;93899.78;;;9.86;67.73
61870;BME280;47810;42.264;23.826;2022-11-15T14:31:53;93901.69;;;9.70;68.29
61870;BME280;47810;42.264;23.826;2022-11-15T14:34:19;93904.31;;;9.70;68.02
61870;BME280;47810;42.264;23.826;2022-11-15T14:36:46;93904.97;;;9.45;69.17
61870;BME280;47810;42.264;23.826;2022-11-15T14:39:13;93906.56;;;9.47;68.98
61870;BME280;47810;42.264;23.826;2022-11-15T14:41:38;93902.94;;;9.34;69.15
61870;BME280;47810;42.264;23.826;2022-11-15T14:44:04;93910.47;;;9.40;69.27
61870;BME280;47810;42.264;23.826;2022-11-15T14:46:30;93901.69;;;9.70;68.18
61870;BME280;47810;42.264;23.826;2022-11-15T14:48:56;93909.16;;;9.19;69.36
61870;BME280;47810;42.264;23.826;2022-11-15T14:51:22;93903.91;;;9.33;69.13
61870;BME280;47810;42.264;23.826;2022-11-15T14:53:48;93908.06;;;8.93;70.18